createdAt,value
2022-07-31T00:01:35.005Z,20.10
2022-07-31T00:04:20.471Z,20.20
2022-07-31T00:07:06.425Z,20.30
2022-07-31T00:09:55.947Z,20.30
2022-07-31T00:12:42.575Z,20.20
2022-07-31T00:15:28.355Z,20.00
2022-07-31T00:18:13.933Z,20.30
2022-07-31T00:20:59.477Z,20.10
2022-07-31T00:23:44.855Z,20.30
2022-07-31T00:26:30.627Z,20.30
2022-07-31T00:29:19.268Z,20.00
2022-07-31T00:32:05.148Z,20.10
2022-07-31T00:34:50.607Z,20.10
2022-07-31T00:37:37.984Z,20.00
2022-07-31T00:40:26.223Z,19.90
2022-07-31T00:43:13.372Z,19.90
2022-07-31T00:45:59.449Z,19.90
2022-07-31T00:48:48.391Z,20.10
2022-07-31T00:51:33.849Z,20.00
2022-07-31T00:54:23.100Z,20.00
2022-07-31T00:57:08.803Z,19.70
2022-07-31T00:59:54.675Z,19.70
2022-07-31T01:02:46.656Z,19.90
2022-07-31T01:05:32.863Z,19.70
2022-07-31T01:08:18.696Z,19.80
2022-07-31T01:11:33.247Z,19.70
2022-07-31T01:14:27.390Z,19.60
2022-07-31T01:17:13.847Z,19.60
2022-07-31T01:19:59.972Z,19.60
2022-07-31T01:23:04.104Z,19.40
2022-07-31T01:26:30.617Z,19.50
2022-07-31T01:29:34.058Z,19.40
2022-07-31T01:32:28.404Z,19.50
2022-07-31T01:35:28.530Z,19.60
2022-07-31T01:38:46.106Z,19.60
2022-07-31T01:41:37.932Z,19.50
2022-07-31T01:44:26.262Z,19.60
2022-07-31T01:47:15.778Z,19.50
2022-07-31T01:50:02.796Z,19.40
2022-07-31T01:52:50.996Z,19.40
2022-07-31T01:56:01.871Z,19.40
2022-07-31T01:58:46.734Z,19.40
2022-07-31T02:01:56.697Z,19.60
2022-07-31T02:04:42.398Z,19.50
2022-07-31T02:07:28.333Z,19.50
2022-07-31T02:10:16.507Z,19.50
2022-07-31T02:13:04.300Z,19.40
2022-07-31T02:15:51.782Z,19.50
2022-07-31T02:18:41.795Z,19.40
2022-07-31T02:21:40.447Z,19.50
2022-07-31T02:24:25.952Z,19.50
2022-07-31T02:27:56.922Z,19.50
2022-07-31T02:30:21.005Z,19.60
2022-07-31T02:33:18.207Z,19.50
2022-07-31T02:36:06.768Z,19.60
2022-07-31T02:38:55.040Z,19.70
2022-07-31T02:41:42.738Z,19.50
2022-07-31T02:44:32.555Z,19.50
2022-07-31T02:47:18.835Z,19.50
2022-07-31T02:50:05.143Z,19.70
2022-07-31T02:52:51.096Z,19.50
2022-07-31T02:55:39.085Z,19.60
2022-07-31T02:58:28.219Z,19.70
2022-07-31T03:01:14.496Z,19.60
2022-07-31T03:04:01.976Z,19.70
2022-07-31T03:06:50.908Z,19.70
2022-07-31T03:09:36.584Z,19.60
2022-07-31T03:12:44.619Z,19.40
2022-07-31T03:15:37.415Z,19.40
2022-07-31T03:18:23.030Z,19.50
2022-07-31T03:21:10.766Z,19.40
2022-07-31T03:23:59.744Z,19.40
2022-07-31T03:26:46.452Z,19.50
2022-07-31T03:29:43.634Z,19.40
2022-07-31T03:32:30.591Z,19.50
2022-07-31T03:35:16.373Z,19.40
2022-07-31T03:38:01.894Z,19.60
2022-07-31T03:41:11.215Z,19.40
2022-07-31T03:43:56.965Z,19.50
2022-07-31T03:46:44.835Z,19.60
2022-07-31T03:49:32.743Z,19.40
2022-07-31T03:52:18.909Z,19.60
2022-07-31T03:55:04.976Z,19.40
2022-07-31T03:57:52.334Z,19.60
2022-07-31T04:00:39.642Z,19.30
2022-07-31T04:03:33.736Z,19.50
2022-07-31T04:06:47.013Z,19.50
2022-07-31T04:09:32.752Z,19.40
2022-07-31T04:12:18.828Z,19.40
2022-07-31T04:15:04.772Z,19.40
2022-07-31T04:17:50.650Z,19.50
2022-07-31T04:20:41.389Z,19.30
2022-07-31T04:23:32.540Z,19.30
2022-07-31T04:26:45.302Z,19.30
2022-07-31T04:29:34.879Z,19.40
2022-07-31T04:32:20.402Z,19.60
2022-07-31T04:35:16.295Z,19.50
2022-07-31T04:38:01.779Z,19.40
2022-07-31T04:40:52.104Z,19.50
2022-07-31T04:43:43.194Z,19.50
2022-07-31T04:46:28.591Z,19.80
2022-07-31T04:49:17.493Z,19.70
2022-07-31T04:52:04.030Z,19.70
2022-07-31T04:54:50.082Z,19.80
2022-07-31T04:57:35.704Z,19.90
2022-07-31T05:00:21.041Z,20.00
2022-07-31T05:03:08.064Z,20.00
2022-07-31T05:05:53.423Z,20.00
2022-07-31T05:08:40.121Z,19.80
2022-07-31T05:11:25.975Z,20.00
2022-07-31T05:14:14.060Z,20.00
2022-07-31T05:16:59.901Z,20.00
2022-07-31T05:19:53.099Z,19.80
2022-07-31T05:22:57.542Z,19.90
2022-07-31T05:26:13.108Z,20.00
2022-07-31T05:29:01.243Z,19.90
2022-07-31T05:31:59.645Z,19.90
2022-07-31T05:34:47.006Z,20.10
2022-07-31T05:37:33.886Z,19.90
2022-07-31T05:40:19.615Z,20.20
2022-07-31T05:43:26.177Z,20.00
2022-07-31T05:46:22.448Z,20.00
2022-07-31T05:49:08.174Z,20.20
2022-07-31T05:51:55.946Z,20.10
2022-07-31T05:54:41.413Z,20.10
2022-07-31T05:57:46.876Z,20.10
2022-07-31T06:00:33.126Z,20.20
2022-07-31T06:03:24.265Z,20.20
2022-07-31T06:06:18.525Z,20.50
2022-07-31T06:09:05.185Z,20.60
2022-07-31T06:11:55.556Z,20.60
2022-07-31T06:14:42.955Z,20.60
2022-07-31T06:17:43.940Z,20.70
2022-07-31T06:20:39.200Z,20.50
2022-07-31T06:23:29.815Z,20.80
2022-07-31T06:26:32.480Z,20.60
2022-07-31T06:29:19.680Z,20.70
2022-07-31T06:32:24.828Z,20.90
2022-07-31T06:35:11.144Z,20.90
2022-07-31T06:38:16.661Z,21.00
2022-07-31T06:41:41.621Z,20.80
2022-07-31T06:44:59.649Z,21.00
2022-07-31T06:48:03.867Z,21.10
2022-07-31T06:51:27.925Z,21.10
2022-07-31T06:54:08.381Z,21.30
2022-07-31T06:56:53.896Z,21.10
2022-07-31T06:59:40.818Z,21.40
2022-07-31T07:02:26.929Z,21.40
2022-07-31T07:05:13.700Z,21.20
2022-07-31T07:07:59.167Z,21.30
2022-07-31T07:10:45.336Z,21.40
2022-07-31T07:13:46.075Z,21.40
2022-07-31T07:16:33.610Z,21.60
2022-07-31T07:19:19.069Z,21.70
2022-07-31T07:22:04.865Z,21.50
2022-07-31T07:24:51.725Z,21.50
2022-07-31T07:27:40.998Z,21.50
2022-07-31T07:30:28.830Z,21.60
2022-07-31T07:33:40.879Z,21.80
2022-07-31T07:36:24.831Z,21.80
2022-07-31T07:39:16.616Z,22.10
2022-07-31T07:42:02.941Z,22.10
2022-07-31T07:44:49.564Z,22.00
2022-07-31T07:48:05.362Z,22.30
2022-07-31T07:50:43.604Z,22.20
2022-07-31T07:53:47.741Z,22.30
2022-07-31T07:56:52.620Z,22.40
2022-07-31T08:00:09.978Z,22.70
2022-07-31T08:03:49.953Z,22.80
2022-07-31T08:06:24.142Z,22.70
2022-07-31T08:09:09.646Z,22.80
2022-07-31T08:12:28.490Z,23.10
2022-07-31T08:15:22.946Z,23.00
2022-07-31T08:18:37.637Z,23.30
2022-07-31T08:21:23.047Z,23.40
2022-07-31T08:24:08.866Z,23.30
2022-07-31T08:27:12.745Z,23.50
2022-07-31T08:30:02.237Z,23.60
2022-07-31T08:32:49.130Z,23.50
2022-07-31T08:36:01.647Z,23.70
2022-07-31T08:38:47.298Z,23.80
2022-07-31T08:41:58.735Z,23.90
2022-07-31T08:44:45.675Z,23.70
2022-07-31T08:47:36.105Z,24.00
2022-07-31T08:50:29.054Z,23.70
2022-07-31T08:53:17.547Z,23.90
2022-07-31T08:56:13.495Z,23.80
2022-07-31T08:58:59.130Z,23.80
2022-07-31T09:01:48.006Z,23.70
2022-07-31T09:04:37.388Z,23.90
2022-07-31T09:07:22.752Z,23.90
2022-07-31T09:10:20.935Z,23.80
2022-07-31T09:13:16.223Z,23.60
2022-07-31T09:16:02.954Z,23.50
2022-07-31T09:19:51.243Z,23.70
2022-07-31T09:22:24.744Z,23.50
2022-07-31T09:25:19.339Z,23.50
2022-07-31T09:28:07.229Z,23.40
2022-07-31T09:30:57.187Z,23.30
2022-07-31T09:33:55.279Z,23.20
2022-07-31T09:37:08.823Z,23.20
2022-07-31T09:40:14.595Z,23.30
2022-07-31T09:43:31.494Z,23.30
2022-07-31T09:46:17.408Z,23.10
2022-07-31T09:49:03.308Z,23.00
2022-07-31T09:51:49.159Z,23.10
2022-07-31T09:54:38.240Z,22.90
2022-07-31T09:57:31.140Z,22.90
2022-07-31T10:00:18.610Z,23.10
2022-07-31T10:03:04.791Z,22.90
2022-07-31T10:05:51.801Z,23.20
2022-07-31T10:08:42.204Z,22.90
2022-07-31T10:11:55.070Z,23.00
2022-07-31T10:14:44.888Z,23.10
2022-07-31T10:17:36.096Z,23.00
2022-07-31T10:20:44.117Z,23.10
2022-07-31T10:23:44.946Z,22.80
2022-07-31T10:26:57.881Z,22.70
2022-07-31T10:29:40.623Z,22.70
2022-07-31T10:32:27.574Z,22.90
2022-07-31T10:35:56.022Z,22.90
2022-07-31T10:39:45.411Z,22.70
2022-07-31T10:43:20.452Z,22.60
2022-07-31T10:46:32.001Z,22.60
2022-07-31T10:49:44.698Z,22.80
2022-07-31T10:52:54.180Z,22.80
2022-07-31T10:56:00.516Z,22.90
2022-07-31T10:59:03.728Z,22.80
2022-07-31T11:02:09.774Z,22.60
2022-07-31T11:05:27.781Z,22.70
2022-07-31T11:08:50.024Z,22.50
2022-07-31T11:12:02.718Z,22.80
2022-07-31T11:14:58.891Z,22.60
2022-07-31T11:18:20.837Z,22.50
2022-07-31T11:21:40.291Z,22.70
2022-07-31T11:24:26.011Z,22.70
2022-07-31T11:27:11.654Z,22.40
2022-07-31T11:30:12.561Z,22.70
2022-07-31T11:32:59.237Z,22.30
2022-07-31T11:35:45.427Z,22.30
2022-07-31T11:38:31.285Z,22.20
2022-07-31T11:41:22.062Z,22.20
2022-07-31T11:44:08.598Z,22.10
2022-07-31T11:46:55.243Z,22.30
2022-07-31T11:49:49.049Z,22.00
2022-07-31T11:52:37.525Z,22.20
2022-07-31T11:55:23.542Z,22.20
2022-07-31T11:58:11.344Z,22.20
2022-07-31T12:01:04.893Z,22.00
2022-07-31T12:03:50.666Z,22.00
2022-07-31T12:06:38.614Z,21.80
2022-07-31T12:10:02.122Z,21.80
2022-07-31T12:12:32.536Z,21.80
2022-07-31T12:15:20.099Z,21.70
2022-07-31T12:18:05.988Z,21.70
2022-07-31T12:21:01.717Z,21.60
2022-07-31T12:23:48.302Z,21.60
2022-07-31T12:26:34.038Z,21.50
2022-07-31T12:29:30.243Z,21.50
2022-07-31T12:32:27.187Z,21.60
2022-07-31T12:35:13.044Z,21.70
2022-07-31T12:37:59.661Z,21.80
2022-07-31T12:40:48.305Z,21.60
2022-07-31T12:43:34.452Z,21.80
2022-07-31T12:46:37.999Z,21.90
2022-07-31T12:49:24.993Z,21.80
2022-07-31T12:52:13.630Z,21.60
2022-07-31T12:54:59.302Z,21.60
2022-07-31T12:57:50.323Z,21.70
2022-07-31T13:00:40.219Z,21.70
2022-07-31T13:03:45.826Z,21.70
2022-07-31T13:06:31.305Z,22.00
2022-07-31T13:09:17.944Z,22.10
2022-07-31T13:12:05.796Z,22.00
2022-07-31T13:14:51.644Z,21.70
2022-07-31T13:17:39.004Z,21.80
2022-07-31T13:20:31.191Z,21.80
2022-07-31T13:23:16.801Z,21.50
2022-07-31T13:26:05.155Z,21.50
2022-07-31T13:28:56.538Z,21.80
2022-07-31T13:31:42.353Z,21.70
2022-07-31T13:34:27.484Z,21.80
2022-07-31T13:37:16.159Z,21.90
2022-07-31T13:40:01.953Z,21.60
2022-07-31T13:42:47.387Z,21.80
2022-07-31T13:45:33.115Z,21.70
2022-07-31T13:48:23.421Z,21.90
2022-07-31T13:51:08.776Z,21.70
2022-07-31T13:53:54.119Z,21.60
2022-07-31T13:56:43.497Z,21.70
2022-07-31T13:59:31.372Z,21.80
2022-07-31T14:02:16.949Z,21.70
2022-07-31T14:05:03.273Z,21.90
2022-07-31T14:07:52.013Z,22.10
2022-07-31T14:10:38.953Z,21.70
2022-07-31T14:13:27.597Z,21.90
2022-07-31T14:16:13.266Z,22.30
2022-07-31T14:18:58.696Z,22.40
2022-07-31T14:21:56.327Z,22.30
2022-07-31T14:24:49.950Z,22.60
2022-07-31T14:27:38.586Z,22.70
2022-07-31T14:30:24.489Z,22.70
2022-07-31T14:33:11.208Z,22.80
2022-07-31T14:35:59.030Z,22.80
2022-07-31T14:38:45.168Z,22.80
2022-07-31T14:41:30.455Z,22.90
2022-07-31T14:44:20.880Z,23.30
2022-07-31T14:47:09.302Z,23.40
2022-07-31T14:50:09.332Z,23.30
2022-07-31T14:52:57.391Z,23.30
2022-07-31T14:55:42.673Z,23.50
2022-07-31T14:58:28.337Z,23.20
2022-07-31T15:01:15.557Z,23.30
2022-07-31T15:04:03.398Z,23.40
2022-07-31T15:06:56.346Z,23.40
2022-07-31T15:09:48.943Z,23.50
2022-07-31T15:12:34.891Z,23.70
2022-07-31T15:15:20.727Z,23.80
2022-07-31T15:18:08.305Z,23.80
2022-07-31T15:20:55.784Z,24.00
2022-07-31T15:23:41.274Z,24.00
2022-07-31T15:26:32.093Z,24.00
2022-07-31T15:29:17.786Z,23.80
2022-07-31T15:32:03.122Z,23.60
2022-07-31T15:34:48.666Z,23.80
2022-07-31T15:37:38.164Z,23.40
2022-07-31T15:40:23.537Z,23.60
2022-07-31T15:43:08.987Z,23.60
2022-07-31T15:45:54.532Z,23.40
2022-07-31T15:48:41.080Z,23.20
2022-07-31T15:51:26.280Z,22.90
2022-07-31T15:54:11.740Z,23.10
2022-07-31T15:56:57.450Z,22.90
2022-07-31T15:59:43.096Z,22.90
2022-07-31T16:02:28.456Z,22.80
2022-07-31T16:05:21.725Z,22.60
2022-07-31T16:08:29.097Z,22.60
2022-07-31T16:11:22.959Z,22.90
2022-07-31T16:14:10.646Z,23.00
2022-07-31T16:16:56.785Z,23.00
2022-07-31T16:19:43.418Z,22.60
2022-07-31T16:22:29.044Z,22.90
2022-07-31T16:25:17.460Z,22.60
2022-07-31T16:28:04.795Z,22.60
2022-07-31T16:30:52.904Z,22.80
2022-07-31T16:33:38.629Z,22.80
2022-07-31T16:36:24.849Z,23.00
2022-07-31T16:39:20.428Z,22.90
2022-07-31T16:42:06.935Z,22.70
2022-07-31T16:44:55.743Z,23.00
2022-07-31T16:47:51.333Z,22.90
2022-07-31T16:50:37.422Z,22.80
2022-07-31T16:54:10.437Z,22.90
2022-07-31T16:56:34.744Z,22.80
2022-07-31T16:59:20.586Z,22.80
2022-07-31T17:02:11.484Z,22.60
2022-07-31T17:04:58.460Z,22.80
2022-07-31T17:07:43.890Z,22.80
2022-07-31T17:10:30.000Z,22.40
2022-07-31T17:13:19.263Z,22.40
2022-07-31T17:16:05.241Z,22.40
2022-07-31T17:18:52.709Z,22.80
2022-07-31T17:21:43.953Z,22.50
2022-07-31T17:24:31.623Z,22.80
2022-07-31T17:27:19.153Z,22.50
2022-07-31T17:30:05.129Z,22.80
2022-07-31T17:32:50.805Z,22.60
2022-07-31T17:35:36.365Z,22.40
2022-07-31T17:38:21.786Z,22.50
2022-07-31T17:41:07.270Z,22.30
2022-07-31T17:44:10.744Z,22.50
2022-07-31T17:46:58.119Z,22.40
2022-07-31T17:49:43.687Z,22.40
2022-07-31T17:52:29.163Z,22.10
2022-07-31T17:55:14.828Z,22.50
2022-07-31T17:58:00.376Z,22.50
2022-07-31T18:00:46.471Z,22.10
2022-07-31T18:03:31.980Z,22.20
2022-07-31T18:06:17.436Z,22.30
2022-07-31T18:09:06.620Z,22.20
2022-07-31T18:11:53.658Z,22.40
2022-07-31T18:14:42.197Z,22.10
2022-07-31T18:17:30.905Z,22.00
2022-07-31T18:20:21.778Z,22.00
2022-07-31T18:23:10.238Z,22.40
2022-07-31T18:25:58.409Z,22.30
2022-07-31T18:28:44.874Z,22.20
2022-07-31T18:31:34.859Z,21.90
2022-07-31T18:34:20.973Z,22.00
2022-07-31T18:37:06.664Z,21.80
2022-07-31T18:39:54.657Z,22.00
2022-07-31T18:42:40.056Z,21.90
2022-07-31T18:45:25.811Z,22.00
2022-07-31T18:48:11.441Z,21.70
2022-07-31T18:51:04.393Z,22.00
2022-07-31T18:53:51.315Z,21.70
2022-07-31T18:56:36.602Z,21.60
2022-07-31T18:59:22.358Z,21.80
2022-07-31T19:02:11.530Z,21.50
2022-07-31T19:04:58.590Z,21.80
2022-07-31T19:07:43.832Z,22.00
2022-07-31T19:10:36.685Z,22.00
2022-07-31T19:13:25.253Z,21.80
2022-07-31T19:16:11.467Z,21.70
2022-07-31T19:18:56.969Z,21.70
2022-07-31T19:21:43.414Z,21.70
2022-07-31T19:24:29.464Z,21.90
2022-07-31T19:27:18.675Z,21.70
2022-07-31T19:30:05.666Z,21.80
2022-07-31T19:32:51.443Z,21.70
2022-07-31T19:35:36.905Z,21.70
2022-07-31T19:38:45.285Z,21.50
2022-07-31T19:41:32.672Z,21.60
2022-07-31T19:44:18.521Z,21.30
2022-07-31T19:47:04.190Z,21.50
2022-07-31T19:49:50.227Z,21.00
2022-07-31T19:52:41.197Z,21.50
2022-07-31T19:55:26.437Z,21.50
2022-07-31T19:58:12.048Z,21.00
2022-07-31T20:00:57.575Z,21.40
2022-07-31T20:03:43.352Z,21.20
2022-07-31T20:06:29.149Z,21.00
2022-07-31T20:09:18.607Z,21.40
2022-07-31T20:12:07.767Z,21.40
2022-07-31T20:14:56.408Z,20.90
2022-07-31T20:17:41.897Z,21.10
2022-07-31T20:20:27.316Z,20.90
2022-07-31T20:23:12.686Z,20.90
2022-07-31T20:25:58.662Z,20.90
2022-07-31T20:28:44.761Z,21.30
2022-07-31T20:31:36.639Z,21.00
2022-07-31T20:34:23.412Z,21.10
2022-07-31T20:37:11.217Z,21.10
2022-07-31T20:39:56.400Z,20.90
2022-07-31T20:42:41.969Z,20.90
2022-07-31T20:45:28.236Z,21.40
2022-07-31T20:48:14.596Z,21.40
2022-07-31T20:51:01.501Z,20.90
2022-07-31T20:53:48.123Z,21.20
2022-07-31T20:56:33.753Z,20.80
2022-07-31T20:59:19.385Z,21.30
2022-07-31T21:02:05.209Z,21.00
2022-07-31T21:04:50.976Z,21.40
2022-07-31T21:07:36.699Z,20.90
2022-07-31T21:10:24.536Z,20.80
2022-07-31T21:13:10.186Z,21.00
2022-07-31T21:15:56.294Z,20.70
2022-07-31T21:18:43.567Z,20.70
2022-07-31T21:21:29.788Z,21.00
2022-07-31T21:24:15.975Z,21.10
2022-07-31T21:27:06.873Z,20.60
2022-07-31T21:29:57.094Z,20.90
2022-07-31T21:32:43.048Z,21.10
2022-07-31T21:35:37.088Z,21.10
2022-07-31T21:38:23.800Z,20.90
2022-07-31T21:41:10.109Z,20.80
2022-07-31T21:43:59.578Z,21.10
2022-07-31T21:46:48.174Z,21.10
2022-07-31T21:49:39.585Z,21.00
2022-07-31T21:52:31.924Z,21.10
2022-07-31T21:55:17.556Z,21.00
2022-07-31T21:58:02.989Z,20.70
2022-07-31T22:00:48.610Z,20.90
2022-07-31T22:03:34.651Z,21.00
2022-07-31T22:06:38.858Z,21.00
2022-07-31T22:09:28.150Z,20.50
2022-07-31T22:12:13.903Z,20.50
2022-07-31T22:14:59.530Z,20.70
2022-07-31T22:17:46.974Z,20.80
2022-07-31T22:20:32.850Z,20.60
2022-07-31T22:23:18.368Z,20.40
2022-07-31T22:26:04.045Z,20.30
2022-07-31T22:28:49.727Z,20.90
2022-07-31T22:31:35.225Z,20.40
2022-07-31T22:34:37.059Z,20.50
2022-07-31T22:37:26.285Z,20.40
2022-07-31T22:40:11.816Z,20.70
2022-07-31T22:42:58.445Z,20.70
2022-07-31T22:45:48.977Z,20.40
2022-07-31T22:48:36.298Z,20.80
2022-07-31T22:51:22.003Z,20.80
2022-07-31T22:54:07.769Z,20.70
2022-07-31T22:56:53.077Z,20.90
2022-07-31T22:59:38.813Z,20.20
2022-07-31T23:02:25.641Z,20.40
2022-07-31T23:05:11.604Z,20.80
2022-07-31T23:07:57.228Z,20.50
2022-07-31T23:10:42.541Z,20.20
2022-07-31T23:13:28.092Z,20.30
2022-07-31T23:16:16.360Z,20.40
2022-07-31T23:19:02.276Z,20.20
2022-07-31T23:21:47.901Z,20.30
2022-07-31T23:24:33.681Z,20.30
2022-07-31T23:27:19.449Z,20.50
2022-07-31T23:30:05.116Z,20.40
2022-07-31T23:32:51.013Z,20.50
2022-07-31T23:35:38.234Z,20.20
2022-07-31T23:38:23.916Z,20.40
2022-07-31T23:41:09.491Z,20.30
2022-07-31T23:43:55.451Z,20.70
2022-07-31T23:46:41.237Z,20.60
2022-07-31T23:49:26.882Z,20.60
2022-07-31T23:52:12.493Z,20.60
2022-07-31T23:55:00.655Z,20.60
2022-07-31T23:57:46.020Z,20.20
